createdAt,value
2019-05-06T00:02:01.980Z,9.83
2019-05-06T00:04:34.096Z,9.81
2019-05-06T00:07:05.027Z,9.77
2019-05-06T00:09:35.507Z,9.77
2019-05-06T00:12:06.519Z,9.78
2019-05-06T00:14:37.223Z,9.79
2019-05-06T00:17:07.681Z,9.83
2019-05-06T00:19:38.047Z,9.90
2019-05-06T00:22:09.717Z,9.96
2019-05-06T00:24:46.791Z,10.04
2019-05-06T00:27:24.687Z,10.09
2019-05-06T00:29:55.147Z,10.17
2019-05-06T00:32:25.781Z,10.25
2019-05-06T00:34:56.775Z,10.27
2019-05-06T00:37:29.181Z,10.29
2019-05-06T00:40:11.567Z,10.29
2019-05-06T00:43:00.856Z,10.32
2019-05-06T00:45:33.993Z,10.37
2019-05-06T00:48:06.304Z,10.41
2019-05-06T00:50:36.589Z,10.38
2019-05-06T00:53:08.907Z,10.39
2019-05-06T00:55:39.302Z,10.37
2019-05-06T00:58:09.673Z,10.32
2019-05-06T01:00:40.050Z,10.28
2019-05-06T01:03:10.290Z,10.24
2019-05-06T01:05:40.571Z,10.18
2019-05-06T01:08:10.895Z,10.16
2019-05-06T01:10:41.280Z,10.16
2019-05-06T01:13:29.979Z,10.15
2019-05-06T01:16:00.283Z,10.15
2019-05-06T01:18:30.576Z,10.16
2019-05-06T01:21:10.325Z,10.18
2019-05-06T01:23:44.103Z,10.16
2019-05-06T01:26:16.263Z,10.18
2019-05-06T01:28:47.204Z,10.17
2019-05-06T01:31:17.895Z,10.18
2019-05-06T01:33:48.131Z,10.16
2019-05-06T01:36:19.056Z,10.16
2019-05-06T01:39:14.263Z,10.17
2019-05-06T01:41:56.502Z,10.18
2019-05-06T01:44:27.170Z,10.14
2019-05-06T01:46:57.588Z,10.14
2019-05-06T01:49:28.224Z,10.14
2019-05-06T01:51:58.853Z,10.11
2019-05-06T01:54:29.128Z,10.09
2019-05-06T01:56:59.499Z,10.10
2019-05-06T01:59:29.751Z,10.08
2019-05-06T02:02:01.267Z,10.09
2019-05-06T02:04:33.710Z,10.07
2019-05-06T02:07:04.383Z,10.08
2019-05-06T02:09:35.023Z,10.10
2019-05-06T02:12:08.342Z,10.11
2019-05-06T02:14:38.665Z,10.10
2019-05-06T02:17:09.304Z,10.10
2019-05-06T02:19:39.663Z,10.08
2019-05-06T02:22:18.279Z,10.03
2019-05-06T02:24:53.585Z,9.96
2019-05-06T02:27:24.716Z,9.93
2019-05-06T02:30:01.126Z,9.91
2019-05-06T02:32:38.903Z,9.89
2019-05-06T02:35:18.209Z,9.87
2019-05-06T02:37:48.593Z,9.82
2019-05-06T02:40:25.868Z,9.80
2019-05-06T02:42:56.180Z,9.75
2019-05-06T02:45:26.956Z,9.72
2019-05-06T02:48:13.819Z,9.63
2019-05-06T02:50:59.660Z,9.54
2019-05-06T02:53:33.118Z,9.42
2019-05-06T02:56:04.156Z,9.33
2019-05-06T02:58:34.515Z,9.20
2019-05-06T03:01:04.925Z,9.17
2019-05-06T03:03:35.222Z,9.13
2019-05-06T03:06:05.580Z,9.11
2019-05-06T03:08:35.917Z,9.09
2019-05-06T03:11:06.244Z,9.09
2019-05-06T03:13:36.645Z,9.08
2019-05-06T03:16:07.030Z,9.07
2019-05-06T03:18:37.428Z,9.07
2019-05-06T03:21:26.053Z,9.12
2019-05-06T03:24:03.928Z,9.10
2019-05-06T03:26:34.242Z,9.11
2019-05-06T03:29:04.565Z,9.12
2019-05-06T03:31:36.631Z,9.11
2019-05-06T03:34:36.536Z,9.08
2019-05-06T03:36:42.317Z,9.05
2019-05-06T03:39:13.896Z,9.00
2019-05-06T03:41:43.966Z,8.91
2019-05-06T03:44:16.658Z,8.87
2019-05-06T03:47:15.050Z,8.90
2019-05-06T03:49:50.209Z,8.91
2019-05-06T03:52:23.259Z,8.94
2019-05-06T03:54:56.021Z,8.90
2019-05-06T03:57:29.468Z,8.91
2019-05-06T04:00:04.506Z,8.95
2019-05-06T04:02:33.809Z,9.00
2019-05-06T04:05:04.442Z,9.07
2019-05-06T04:07:36.443Z,9.13
2019-05-06T04:10:07.603Z,9.25
2019-05-06T04:12:39.588Z,9.35
2019-05-06T04:15:13.871Z,9.46
2019-05-06T04:17:56.480Z,9.54
2019-05-06T04:20:43.374Z,9.50
2019-05-06T04:23:26.679Z,9.40
2019-05-06T04:26:23.957Z,9.35
2019-05-06T08:11:25.975Z,14.08
2019-05-06T08:13:55.381Z,13.92
2019-05-06T08:16:27.687Z,13.85
2019-05-06T08:18:58.241Z,13.93
2019-05-06T08:21:32.587Z,13.82
2019-05-06T08:24:02.799Z,13.78
2019-05-06T08:26:33.426Z,13.78
2019-05-06T08:29:06.029Z,13.85
2019-05-06T08:31:38.769Z,13.88
2019-05-06T08:34:12.126Z,13.89
2019-05-06T08:37:02.464Z,13.86
2019-05-06T08:39:35.531Z,14.27
2019-05-06T08:42:06.565Z,14.66
2019-05-06T08:44:37.136Z,14.78
2019-05-06T08:47:10.169Z,14.71
2019-05-06T08:50:02.350Z,14.66
2019-05-06T08:52:52.409Z,14.67
2019-05-06T08:55:29.577Z,14.66
2019-05-06T08:58:18.151Z,14.69
2019-05-06T09:00:59.720Z,14.56
2019-05-06T09:03:42.170Z,14.63
2019-05-06T09:06:26.974Z,14.71
2019-05-06T09:08:46.908Z,14.52
2019-05-06T09:11:25.221Z,14.58
2019-05-06T09:13:54.925Z,14.63
2019-05-06T09:16:32.929Z,14.60
2019-05-06T09:19:06.872Z,14.56
2019-05-06T09:21:49.452Z,14.60
2019-05-06T09:24:38.478Z,14.76
2019-05-06T09:27:23.707Z,14.91
2019-05-06T09:29:59.845Z,15.38
2019-05-06T09:32:36.289Z,15.87
2019-05-06T09:35:12.951Z,15.99
2019-05-06T09:37:43.150Z,15.89
2019-05-06T09:40:14.622Z,15.80
2019-05-06T09:42:45.000Z,15.54
2019-05-06T09:45:17.007Z,15.38
2019-05-06T09:47:57.156Z,15.03
2019-05-06T09:50:46.140Z,14.64
2019-05-06T09:53:26.997Z,14.26
2019-05-06T09:56:33.508Z,14.23
2019-05-06T09:59:07.671Z,14.15
2019-05-06T10:01:38.034Z,14.33
2019-05-06T10:04:08.818Z,14.34
2019-05-06T10:06:55.836Z,14.32
2019-05-06T10:09:15.949Z,14.30
2019-05-06T10:11:47.252Z,14.37
2019-05-06T10:14:19.098Z,14.53
2019-05-06T10:16:53.021Z,14.62
2019-05-06T10:19:24.790Z,14.68
2019-05-06T10:21:58.948Z,14.60
2019-05-06T10:24:32.871Z,14.52
2019-05-06T10:27:03.691Z,14.39
2019-05-06T10:29:59.455Z,14.39
2019-05-06T10:32:43.483Z,14.38
2019-05-06T10:35:13.903Z,14.48
2019-05-06T10:38:32.447Z,14.61
2019-05-06T10:41:08.546Z,14.70
2019-05-06T10:43:55.003Z,14.91
2019-05-06T10:46:25.466Z,14.96
2019-05-06T10:48:58.809Z,15.02
2019-05-06T10:51:37.263Z,14.98
2019-05-06T10:54:12.285Z,14.99
2019-05-06T10:57:03.860Z,15.11
2019-05-06T10:59:34.232Z,15.32
2019-05-06T11:02:23.296Z,15.54
2019-05-06T11:04:58.207Z,15.80
2019-05-06T11:07:36.412Z,16.07
2019-05-06T11:10:07.030Z,16.38
2019-05-06T11:12:37.494Z,16.75
2019-05-06T11:17:38.131Z,17.03
2019-05-06T11:20:11.402Z,16.85
2019-05-06T11:22:43.565Z,16.69
2019-05-06T11:25:16.779Z,16.78
2019-05-06T11:27:56.623Z,16.82
2019-05-06T11:30:52.940Z,16.70
2019-05-06T11:33:45.667Z,16.61
2019-05-06T11:36:23.048Z,16.74
2019-05-06T11:38:54.465Z,16.64
2019-05-06T11:41:29.488Z,16.69
2019-05-06T11:44:00.280Z,16.75
2019-05-06T11:46:32.230Z,16.83
2019-05-06T11:49:12.460Z,16.90
2019-05-06T11:51:43.689Z,16.91
2019-05-06T11:54:20.757Z,16.92
2019-05-06T11:56:51.502Z,16.98
2019-05-06T11:59:27.037Z,17.28
2019-05-06T12:02:07.563Z,17.39
2019-05-06T12:04:41.924Z,17.54
2019-05-06T12:07:15.667Z,17.57
2019-05-06T12:09:46.518Z,17.66
2019-05-06T12:12:20.113Z,17.37
2019-05-06T12:15:08.060Z,17.22
2019-05-06T12:18:23.232Z,17.24
2019-05-06T12:21:07.964Z,17.44
2019-05-06T12:23:26.835Z,17.79
2019-05-06T12:25:57.746Z,17.70
2019-05-06T12:28:28.117Z,17.42
2019-05-06T12:30:58.983Z,17.26
2019-05-06T12:33:35.883Z,17.38
2019-05-06T12:36:18.322Z,17.51
2019-05-06T12:39:09.853Z,17.62
2019-05-06T12:41:59.703Z,17.74
2019-05-06T12:44:33.836Z,17.59
2019-05-06T12:47:24.135Z,17.37
2019-05-06T12:49:58.893Z,17.23
2019-05-06T12:52:29.607Z,17.24
2019-05-06T12:55:17.467Z,17.31
2019-05-06T12:57:34.496Z,17.49
2019-05-06T13:00:06.035Z,17.55
2019-05-06T13:02:36.378Z,17.60
2019-05-06T13:05:07.185Z,17.54
2019-05-06T13:07:47.411Z,17.48
2019-05-06T13:10:23.058Z,17.37
2019-05-06T13:13:05.221Z,17.13
2019-05-06T13:15:52.706Z,16.90
2019-05-06T13:18:19.492Z,16.91
2019-05-06T13:20:53.168Z,16.89
2019-05-06T13:23:35.107Z,16.89
2019-05-06T13:26:04.906Z,16.92
2019-05-06T13:28:44.448Z,16.92
2019-05-06T13:31:21.526Z,16.81
2019-05-06T13:33:58.635Z,16.65
2019-05-06T13:36:38.289Z,16.61
2019-05-06T13:39:15.050Z,16.66
2019-05-06T13:41:49.344Z,16.48
2019-05-06T13:44:24.670Z,16.19
2019-05-06T13:46:58.390Z,15.99
2019-05-06T13:49:53.823Z,15.71
2019-05-06T13:52:27.630Z,15.44
2019-05-06T13:54:58.148Z,15.68
2019-05-06T13:57:29.362Z,15.80
2019-05-06T14:00:06.544Z,16.00
2019-05-06T14:03:02.113Z,16.22
2019-05-06T14:05:33.405Z,16.18
2019-05-06T14:08:04.844Z,16.28
2019-05-06T14:10:35.756Z,16.31
2019-05-06T14:13:10.288Z,16.18
2019-05-06T14:15:42.067Z,16.10
2019-05-06T14:18:13.618Z,15.71
2019-05-06T14:20:45.800Z,15.50
2019-05-06T14:23:16.568Z,15.46
2019-05-06T14:26:04.978Z,15.69
2019-05-06T14:28:54.628Z,16.04
2019-05-06T14:31:32.797Z,16.45
2019-05-06T14:34:03.705Z,16.67
2019-05-06T14:36:36.104Z,16.74
2019-05-06T14:39:14.678Z,16.84
2019-05-06T14:41:55.001Z,16.67
2019-05-06T14:44:32.659Z,16.63
2019-05-06T14:47:20.217Z,16.54
2019-05-06T14:49:52.994Z,16.38
2019-05-06T14:52:29.243Z,16.37
2019-05-06T14:55:22.483Z,16.40
2019-05-06T14:58:18.512Z,16.27
2019-05-06T15:00:53.450Z,16.26
2019-05-06T15:04:17.799Z,16.25
2019-05-06T15:07:06.486Z,16.24
2019-05-06T15:09:53.617Z,16.26
2019-05-06T15:12:19.536Z,16.26
2019-05-06T15:14:53.292Z,16.29
2019-05-06T15:17:24.498Z,16.30
2019-05-06T15:19:56.516Z,16.24
2019-05-06T15:22:30.184Z,16.18
2019-05-06T15:25:02.407Z,16.16
2019-05-06T15:27:33.650Z,16.14
2019-05-06T15:30:07.139Z,16.21
2019-05-06T15:32:39.623Z,16.12
2019-05-06T15:35:25.993Z,16.09
2019-05-06T15:38:02.397Z,15.92
2019-05-06T15:40:36.619Z,15.92
2019-05-06T15:43:07.553Z,15.89
2019-05-06T15:45:43.089Z,15.91
2019-05-06T15:48:13.723Z,16.18
2019-05-06T15:50:47.358Z,16.24
2019-05-06T15:53:18.401Z,16.11
2019-05-06T15:55:53.280Z,15.96
2019-05-06T15:58:22.952Z,15.95
2019-05-06T16:00:56.653Z,15.96
2019-05-06T16:03:27.085Z,15.89
2019-05-06T16:05:57.687Z,15.89
2019-05-06T16:08:32.087Z,15.95
2019-05-06T16:11:03.064Z,16.03
2019-05-06T16:13:33.437Z,16.04
2019-05-06T16:16:06.870Z,15.96
2019-05-06T16:18:35.987Z,15.87
2019-05-06T16:21:06.852Z,15.69
2019-05-06T16:23:44.945Z,15.52
2019-05-06T16:26:15.893Z,15.41
2019-05-06T16:28:46.525Z,15.34
2019-05-06T16:31:16.878Z,15.23
2019-05-06T16:33:47.163Z,15.42
2019-05-06T16:36:17.858Z,15.35
2019-05-06T16:38:48.186Z,15.34
2019-05-06T16:41:18.792Z,15.37
2019-05-06T16:43:49.427Z,15.37
2019-05-06T16:46:19.748Z,15.34
2019-05-06T16:48:52.447Z,15.33
2019-05-06T16:51:23.703Z,15.27
2019-05-06T16:53:54.127Z,15.17
2019-05-06T16:56:39.501Z,15.12
2019-05-06T16:59:12.794Z,15.13
2019-05-06T17:01:47.476Z,15.05
2019-05-06T17:04:35.032Z,14.90
2019-05-06T17:07:15.966Z,14.84
2019-05-06T17:09:48.868Z,14.81
2019-05-06T17:12:19.320Z,14.84
2019-05-06T17:14:49.630Z,14.83
2019-05-06T17:17:22.863Z,14.74
2019-05-06T17:19:54.953Z,14.65
2019-05-06T17:22:29.744Z,14.61
2019-05-06T17:25:02.413Z,14.54
2019-05-06T17:27:35.199Z,14.46
2019-05-06T17:30:15.818Z,14.42
2019-05-06T17:32:52.588Z,14.36
2019-05-06T17:35:23.532Z,14.35
2019-05-06T17:38:08.874Z,14.32
2019-05-06T17:40:39.547Z,14.36
2019-05-06T17:43:12.997Z,14.39
2019-05-06T17:46:02.213Z,14.40
2019-05-06T17:48:48.219Z,14.44
2019-05-06T17:51:23.983Z,14.38
2019-05-06T17:54:06.272Z,14.34
2019-05-06T17:56:36.733Z,14.28
2019-05-06T17:59:16.576Z,14.35
2019-05-06T18:01:53.020Z,14.32
2019-05-06T18:04:23.231Z,14.32
2019-05-06T18:06:53.915Z,14.22
2019-05-06T18:09:27.387Z,14.14
2019-05-06T18:11:59.697Z,14.09
2019-05-06T18:14:32.639Z,14.07
2019-05-06T18:17:03.618Z,14.01
2019-05-06T18:19:39.862Z,13.98
2019-05-06T18:22:10.167Z,13.96
2019-05-06T18:24:40.563Z,13.95
2019-05-06T18:27:13.401Z,13.92
2019-05-06T18:29:44.701Z,13.86
2019-05-06T18:32:15.671Z,13.78
2019-05-06T18:34:46.021Z,13.73
2019-05-06T18:37:18.779Z,13.64
2019-05-06T18:39:49.443Z,13.60
2019-05-06T18:42:23.612Z,13.55
2019-05-06T18:44:56.064Z,13.50
2019-05-06T18:47:28.060Z,13.47
2019-05-06T18:50:02.496Z,13.46
2019-05-06T18:52:40.712Z,13.46
2019-05-06T18:55:17.778Z,13.51
2019-05-06T18:57:52.629Z,13.47
2019-05-06T19:00:35.977Z,13.49
2019-05-06T19:03:06.487Z,13.45
2019-05-06T19:05:43.231Z,13.45
2019-05-06T19:08:24.812Z,13.42
2019-05-06T19:11:02.431Z,13.39
2019-05-06T19:13:35.210Z,13.42
2019-05-06T19:16:07.563Z,13.40
2019-05-06T19:18:58.935Z,13.37
2019-05-06T19:21:29.386Z,13.30
2019-05-06T19:24:00.027Z,13.28
2019-05-06T19:26:40.048Z,13.19
2019-05-06T19:29:12.342Z,13.16
2019-05-06T19:31:44.979Z,13.13
2019-05-06T19:34:17.081Z,13.13
2019-05-06T19:36:49.357Z,13.15
2019-05-06T19:39:23.920Z,13.12
2019-05-06T19:42:08.249Z,13.16
2019-05-06T19:44:46.758Z,13.10
2019-05-06T19:47:19.869Z,13.13
2019-05-06T19:49:52.984Z,13.16
2019-05-06T19:52:32.029Z,13.15
2019-05-06T19:55:05.897Z,13.13
2019-05-06T19:57:39.902Z,13.08
2019-05-06T20:00:11.644Z,13.07
2019-05-06T20:02:44.822Z,13.06
2019-05-06T20:05:30.918Z,13.05
2019-05-06T20:08:23.178Z,13.05
2019-05-06T20:11:15.460Z,13.08
2019-05-06T20:13:52.586Z,13.06
2019-05-06T20:16:23.503Z,13.08
2019-05-06T20:18:54.394Z,13.06
2019-05-06T20:21:25.845Z,12.99
2019-05-06T20:23:56.531Z,12.93
2019-05-06T20:26:27.141Z,12.90
2019-05-06T20:28:57.798Z,12.85
2019-05-06T20:31:28.589Z,12.88
2019-05-06T20:33:59.589Z,12.81
2019-05-06T20:36:33.141Z,12.76
2019-05-06T20:39:08.309Z,12.72
2019-05-06T20:41:42.559Z,12.75
2019-05-06T20:44:13.244Z,12.70
2019-05-06T20:46:44.136Z,12.70
2019-05-06T20:49:17.419Z,12.72
2019-05-06T20:51:49.505Z,12.69
2019-05-06T20:54:23.768Z,12.65
2019-05-06T20:56:57.756Z,12.66
2019-05-06T20:59:28.879Z,12.63
2019-05-06T21:02:03.067Z,12.62
2019-05-06T21:04:33.825Z,12.63
2019-05-06T21:07:04.534Z,12.62
2019-05-06T21:09:34.918Z,12.61
2019-05-06T21:12:05.632Z,12.53
2019-05-06T21:14:36.391Z,12.54
2019-05-06T21:17:07.559Z,12.53
2019-05-06T21:19:38.301Z,12.54
2019-05-06T21:22:08.699Z,12.48
2019-05-06T21:24:39.036Z,12.40
2019-05-06T21:27:09.363Z,12.37
2019-05-06T21:29:43.143Z,12.34
2019-05-06T21:32:13.959Z,12.31
2019-05-06T21:34:44.634Z,12.27
2019-05-06T21:37:19.050Z,12.22
2019-05-06T21:39:49.865Z,12.12
2019-05-06T21:42:20.500Z,12.03
2019-05-06T21:44:52.262Z,11.93
2019-05-06T21:47:22.912Z,11.86
2019-05-06T21:49:53.333Z,11.80
2019-05-06T21:52:36.294Z,11.72
2019-05-06T21:54:57.218Z,11.66
2019-05-06T21:57:39.405Z,11.60
2019-05-06T22:00:16.965Z,11.57
2019-05-06T22:02:46.657Z,11.50
2019-05-06T22:05:18.896Z,11.44
2019-05-06T22:07:49.790Z,11.44
2019-05-06T22:10:42.254Z,11.46
2019-05-06T22:13:25.489Z,11.44
2019-05-06T22:15:56.004Z,11.42
2019-05-06T22:18:48.888Z,11.40
2019-05-06T22:21:42.604Z,11.33
2019-05-06T22:24:15.743Z,11.36
2019-05-06T22:26:47.751Z,11.40
2019-05-06T22:29:18.632Z,11.42
2019-05-06T22:31:49.264Z,11.40
2019-05-06T22:34:22.202Z,11.42
2019-05-06T22:36:54.318Z,11.45
2019-05-06T22:39:27.905Z,11.41
2019-05-06T22:41:58.333Z,11.35
2019-05-06T22:44:32.327Z,11.36
2019-05-06T22:47:02.744Z,11.38
2019-05-06T22:49:33.646Z,11.36
2019-05-06T22:52:07.846Z,11.28
2019-05-06T22:54:38.401Z,11.27
2019-05-06T22:57:12.039Z,11.26
2019-05-06T22:59:43.243Z,11.20
2019-05-06T23:02:32.224Z,11.12
2019-05-06T23:05:04.497Z,11.04
2019-05-06T23:07:35.683Z,11.00
2019-05-06T23:10:07.496Z,10.98
2019-05-06T23:12:37.951Z,10.95
2019-05-06T23:15:09.458Z,10.94
2019-05-06T23:17:42.275Z,10.94
2019-05-06T23:20:13.468Z,10.94
2019-05-06T23:22:49.355Z,10.90
2019-05-06T23:25:22.042Z,10.86
2019-05-06T23:27:53.226Z,10.84
2019-05-06T23:30:24.228Z,10.79
2019-05-06T23:32:54.839Z,10.79
2019-05-06T23:35:26.320Z,10.80
2019-05-06T23:38:52.433Z,10.80
2019-05-06T23:42:17.041Z,10.68
2019-05-06T23:45:42.508Z,10.55
2019-05-06T23:49:07.882Z,10.46
2019-05-06T23:52:32.210Z,10.32
2019-05-06T23:55:59.232Z,10.33
2019-05-06T23:58:32.200Z,10.23
